Time;durP1;ratioP1;P1;durP2;ratioP2;P2;SDS_P1;SDS_P2;PMS_P1;PMS_P2;Temp;Humidity;BMP_temperature;BMP_pressure;BME280_temperature;BME280_humidity;BME280_pressure;Samples;Min_cycle;Max_cycle;Signal;HPM_P1;HPM_P2
2021/03/19 00:00:41;;;;;;;13.95;6.75;;;3.60;92.90;;;;;;5116111;28;20537;-78
2021/03/19 00:10:27;;;;;;;13.27;6.32;;;3.40;92.80;;;;;;5116358;28;20042;-78
2021/03/19 00:16:16;;;;;;;13.43;6.50;;;3.30;92.90;;;;;;5115755;28;20062;-78
2021/03/19 00:22:04;;;;;;;15.65;7.20;;;3.30;93.00;;;;;;5116045;28;20096;-78
2021/03/19 00:27:53;;;;;;;15.07;7.63;;;3.20;93.00;;;;;;5115488;28;20041;-78
2021/03/19 00:33:41;;;;;;;15.40;7.88;;;3.20;93.00;;;;;;5115285;28;20074;-78
2021/03/19 00:39:29;;;;;;;13.45;6.93;;;3.20;93.10;;;;;;5115591;28;20080;-78
2021/03/19 00:45:18;;;;;;;15.10;7.55;;;3.20;93.20;;;;;;5115300;28;20399;-78
2021/03/19 00:51:07;;;;;;;14.15;7.03;;;3.30;93.30;;;;;;5115396;28;20038;-78
2021/03/19 00:56:56;;;;;;;16.13;7.95;;;3.40;93.20;;;;;;5115299;28;20066;-78
2021/03/19 01:02:44;;;;;;;13.80;6.78;;;3.50;93.30;;;;;;5114691;28;20429;-79
2021/03/19 01:12:28;;;;;;;15.13;7.63;;;3.50;93.30;;;;;;5114992;28;20046;-79
2021/03/19 01:18:19;;;;;;;15.15;7.88;;;3.50;93.30;;;;;;5114897;28;20070;-79
2021/03/19 01:24:08;;;;;;;14.85;7.45;;;3.50;93.20;;;;;;5114593;28;20115;-79
2021/03/19 01:29:56;;;;;;;14.70;7.57;;;3.40;93.10;;;;;;5114759;28;20100;-79
2021/03/19 01:35:46;;;;;;;16.60;8.55;;;3.50;93.30;;;;;;5114416;28;20054;-79
2021/03/19 01:41:35;;;;;;;13.45;7.70;;;3.50;93.30;;;;;;5114765;28;20501;-80
2021/03/19 01:48:00;;;;;;;15.82;8.88;;;3.60;93.30;;;;;;5114712;28;20030;-79
2021/03/19 01:54:25;;;;;;;14.75;8.13;;;3.60;93.40;;;;;;5114403;28;20046;-79
2021/03/19 02:00:51;;;;;;;15.50;8.27;;;3.60;93.20;;;;;;5114140;28;20455;-79
2021/03/19 02:07:16;;;;;;;17.63;9.35;;;3.60;93.40;;;;;;5114224;28;20045;-78
2021/03/19 02:13:41;;;;;;;14.88;8.35;;;3.60;93.30;;;;;;5114002;28;20042;-78
2021/03/19 02:20:06;;;;;;;16.48;8.52;;;3.60;93.20;;;;;;5118338;28;20082;-78
2021/03/19 02:26:31;;;;;;;16.70;9.45;;;3.60;93.40;;;;;;5118373;28;20030;-78
2021/03/19 02:32:23;;;;;;;17.67;9.32;;;3.50;93.20;;;;;;5118070;28;20054;-78
2021/03/19 02:38:11;;;;;;;16.25;8.52;;;3.50;93.20;;;;;;5118021;28;20470;-78
2021/03/19 02:43:59;;;;;;;16.67;9.30;;;3.40;93.10;;;;;;5118051;28;20433;-78
2021/03/19 02:49:48;;;;;;;16.60;8.98;;;3.30;93.00;;;;;;5117787;28;20113;-78
2021/03/19 02:55:36;;;;;;;15.77;8.20;;;3.20;93.00;;;;;;5117611;28;20528;-78
2021/03/19 03:01:25;;;;;;;16.63;8.95;;;3.20;93.00;;;;;;5117568;28;20038;-78
2021/03/19 03:07:26;;;;;;;17.85;9.10;;;3.10;93.00;;;;;;5117184;28;20034;-78
2021/03/19 03:13:15;;;;;;;16.52;8.90;;;2.90;92.90;;;;;;5117073;28;20151;-78
2021/03/19 03:19:05;;;;;;;15.65;8.77;;;2.90;93.00;;;;;;5117120;28;20031;-78
2021/03/19 03:24:54;;;;;;;19.45;9.52;;;2.90;93.10;;;;;;5116327;28;20391;-79
2021/03/19 03:30:44;;;;;;;16.40;8.75;;;2.80;93.10;;;;;;5116965;28;20039;-79
2021/03/19 03:36:33;;;;;;;20.65;10.07;;;2.70;92.80;;;;;;5116810;28;20030;-78
2021/03/19 03:42:22;;;;;;;15.75;8.45;;;2.60;93.00;;;;;;5116508;28;20065;-77
2021/03/19 03:48:13;;;;;;;20.02;8.75;;;2.50;92.80;;;;;;5116799;28;20089;-78
2021/03/19 03:54:01;;;;;;;18.73;9.40;;;2.40;92.70;;;;;;5116673;28;20082;-78
2021/03/19 03:59:49;;;;;;;19.73;10.20;;;2.20;92.70;;;;;;5116207;28;20057;-77
2021/03/19 04:05:44;;;;;;;18.52;10.10;;;2.20;92.90;;;;;;5116348;28;20477;-78
2021/03/19 04:15:34;;;;;;;22.13;10.82;;;2.40;93.20;;;;;;5116112;28;20383;-78
2021/03/19 04:21:22;;;;;;;21.20;10.88;;;2.40;93.20;;;;;;5115851;28;20054;-78
2021/03/19 04:27:20;;;;;;;19.63;10.27;;;2.50;93.20;;;;;;5115928;28;20444;-78
2021/03/19 04:33:20;;;;;;;18.52;10.20;;;2.50;93.30;;;;;;5115457;28;20532;-78
2021/03/19 04:39:13;;;;;;;20.98;10.77;;;2.60;93.20;;;;;;5115662;28;20371;-79
2021/03/19 04:45:02;;;;;;;18.33;9.65;;;2.50;93.10;;;;;;5115339;28;20103;-79
2021/03/19 04:50:51;;;;;;;18.25;9.82;;;2.60;93.30;;;;;;5115392;28;20046;-79
2021/03/19 04:56:39;;;;;;;20.73;10.07;;;2.60;93.30;;;;;;5115289;28;20528;-78
2021/03/19 05:02:44;;;;;;;22.00;10.43;;;2.60;93.20;;;;;;5115269;28;20034;-78
2021/03/19 05:08:32;;;;;;;20.42;10.68;;;2.60;93.00;;;;;;5114854;28;20503;-79
2021/03/19 05:18:22;;;;;;;19.98;10.15;;;2.50;93.10;;;;;;5114984;28;20035;-79
2021/03/19 05:24:11;;;;;;;20.30;9.70;;;2.40;93.10;;;;;;5114956;28;20026;-79
2021/03/19 05:30:00;;;;;;;20.98;10.68;;;2.40;93.10;;;;;;5114542;28;20030;-79
2021/03/19 05:35:48;;;;;;;20.60;11.25;;;2.40;93.20;;;;;;5114635;28;20536;-80
2021/03/19 05:41:39;;;;;;;19.60;11.07;;;2.40;93.20;;;;;;5114349;28;20157;-80
2021/03/19 05:47:29;;;;;;;21.55;12.25;;;2.40;93.20;;;;;;5114312;28;20035;-79
2021/03/19 05:53:21;;;;;;;25.13;11.60;;;2.50;93.20;;;;;;5114316;28;20050;-79
2021/03/19 05:59:09;;;;;;;21.88;12.48;;;2.60;93.40;;;;;;5114383;28;20027;-80
2021/03/19 06:05:01;;;;;;;25.05;13.00;;;2.70;93.40;;;;;;5114411;28;20375;-80
2021/03/19 06:11:05;;;;;;;23.27;12.25;;;2.90;93.50;;;;;;5114598;28;20115;-80
2021/03/19 06:21:05;;;;;;;19.27;10.25;;;3.00;93.60;;;;;;5114269;28;20100;-79
2021/03/19 06:27:09;;;;;;;23.85;13.02;;;3.20;93.50;;;;;;5115300;28;20027;-85
2021/03/19 06:33:20;;;;;;;22.27;11.63;;;3.30;93.40;;;;;;5114380;28;20042;-82
2021/03/19 06:39:22;;;;;;;21.10;10.82;;;3.30;93.30;;;;;;5117575;28;20061;-89
2021/03/19 06:45:21;;;;;;;24.08;12.43;;;3.50;93.50;;;;;;5113791;28;20019;-80
2021/03/19 06:51:31;;;;;;;20.45;10.77;;;3.70;94.10;;;;;;5113898;28;20157;-80
2021/03/19 06:57:20;;;;;;;21.25;10.65;;;3.90;93.60;;;;;;5113995;28;20074;-80
2021/03/19 07:03:11;;;;;;;23.50;12.27;;;3.90;93.50;;;;;;5117250;28;20019;-80
2021/03/19 07:09:06;;;;;;;23.55;11.95;;;4.10;93.50;;;;;;5117201;28;20065;-81
2021/03/19 07:14:57;;;;;;;22.30;11.55;;;4.20;93.70;;;;;;5117362;28;20082;-80
2021/03/19 07:21:16;;;;;;;19.63;10.63;;;4.40;93.60;;;;;;5117300;28;20101;-83
2021/03/19 07:27:29;;;;;;;22.25;10.38;;;4.50;93.50;;;;;;5117110;28;20096;-80
2021/03/19 07:33:36;;;;;;;20.15;10.70;;;4.50;93.30;;;;;;5116766;28;20116;-84
2021/03/19 07:39:39;;;;;;;19.10;10.55;;;4.50;93.30;;;;;;5116554;28;20076;-79
2021/03/19 07:45:51;;;;;;;21.02;11.35;;;4.60;93.40;;;;;;5116423;28;20030;-78
2021/03/19 07:52:06;;;;;;;21.25;10.93;;;4.50;93.10;;;;;;5116486;28;20482;-80
2021/03/19 07:58:19;;;;;;;21.75;11.70;;;4.40;93.10;;;;;;5116459;28;20034;-82
2021/03/19 08:04:25;;;;;;;21.65;11.35;;;4.30;93.10;;;;;;5116275;28;20147;-79
2021/03/19 08:10:23;;;;;;;22.10;11.50;;;4.30;93.40;;;;;;5115882;28;20676;-79
2021/03/19 08:16:41;;;;;;;20.77;11.50;;;4.30;93.20;;;;;;5116039;28;20070;-81
2021/03/19 08:22:33;;;;;;;21.10;11.68;;;4.40;93.40;;;;;;5115705;28;20067;-79
2021/03/19 08:28:42;;;;;;;20.00;10.95;;;4.70;93.70;;;;;;5115913;28;20034;-84
2021/03/19 08:35:12;;;;;;;20.55;11.27;;;5.20;94.10;;;;;;5115771;28;20103;-84
2021/03/19 08:41:05;;;;;;;17.95;9.60;;;5.70;93.90;;;;;;5115299;28;20031;-79
2021/03/19 08:47:20;;;;;;;14.23;7.25;;;6.00;93.70;;;;;;5115443;28;20088;-78
2021/03/19 08:53:14;;;;;;;12.93;6.65;;;6.10;92.90;;;;;;5115171;28;20054;-78
2021/03/19 08:59:02;;;;;;;12.20;6.22;;;6.00;92.40;;;;;;5115208;28;20026;-79
2021/03/19 09:04:53;;;;;;;11.52;5.53;;;5.80;92.60;;;;;;5114976;28;20027;-79
2021/03/19 09:10:41;;;;;;;10.82;4.88;;;6.00;93.30;;;;;;5114944;28;20041;-80
2021/03/19 09:20:31;;;;;;;10.80;4.65;;;6.40;93.10;;;;;;5114637;28;20031;-80
2021/03/19 09:26:19;;;;;;;11.40;5.35;;;6.30;92.50;;;;;;5114855;28;20047;-79
2021/03/19 09:32:26;;;;;;;11.43;6.18;;;6.40;93.20;;;;;;5114647;28;20061;-83
2021/03/19 09:38:37;;;;;;;10.85;5.20;;;6.60;93.00;;;;;;5114565;28;20038;-82
2021/03/19 09:44:29;;;;;;;11.43;5.22;;;6.70;92.80;;;;;;5114557;28;20058;-80
2021/03/19 09:50:32;;;;;;;12.30;6.55;;;6.80;93.00;;;;;;5114433;28;20031;-79
2021/03/19 09:56:27;;;;;;;12.02;5.28;;;6.90;92.90;;;;;;5114344;28;20068;-81
2021/03/19 10:02:31;;;;;;;12.02;5.28;;;7.10;93.10;;;;;;5114080;28;20077;-81
2021/03/19 10:08:32;;;;;;;13.40;5.60;;;7.30;92.90;;;;;;5114048;28;20132;-80
2021/03/19 10:14:35;;;;;;;10.30;4.85;;;7.40;93.00;;;;;;5114024;28;20096;-81
2021/03/19 10:20:33;;;;;;;11.80;4.85;;;7.80;93.40;;;;;;5114178;28;20070;-79
2021/03/19 10:26:34;;;;;;;10.88;5.32;;;8.00;93.50;;;;;;5113907;28;20208;-80
2021/03/19 10:32:24;;;;;;;9.40;4.35;;;8.70;93.60;;;;;;5113719;28;20035;-80
2021/03/19 10:38:33;;;;;;;10.13;4.70;;;9.30;93.30;;;;;;5117701;28;20023;-80
2021/03/19 10:44:40;;;;;;;10.45;5.00;;;9.20;92.20;;;;;;5117856;28;20440;-79
2021/03/19 10:50:37;;;;;;;11.23;5.22;;;8.60;91.00;;;;;;5117784;28;20039;-79
2021/03/19 10:56:26;;;;;;;11.70;5.85;;;8.40;92.00;;;;;;5117743;28;20498;-79
2021/03/19 11:02:17;;;;;;;13.43;5.57;;;8.20;91.70;;;;;;5117204;28;20065;-78
2021/03/19 11:08:15;;;;;;;12.38;5.32;;;8.00;91.90;;;;;;5117463;28;20533;-81
2021/03/19 11:14:10;;;;;;;11.68;5.28;;;8.50;93.40;;;;;;5117072;28;20046;-82
2021/03/19 11:24:25;;;;;;;9.48;4.22;;;9.30;93.50;;;;;;5117131;28;20035;-81
2021/03/19 11:30:35;;;;;;;8.90;4.15;;;10.50;94.40;;;;;;5117231;28;20080;-82
2021/03/19 11:36:25;;;;;;;9.05;4.40;;;11.50;93.40;;;;;;5117626;28;20176;-82
2021/03/19 11:42:16;;;;;;;10.15;4.50;;;12.10;92.40;;;;;;5116846;28;20119;-82
2021/03/19 11:48:07;;;;;;;8.73;4.15;;;11.60;91.20;;;;;;5116427;28;20556;-83
2021/03/19 11:53:56;;;;;;;8.52;3.75;;;10.70;90.20;;;;;;5116330;28;20065;-81
2021/03/19 11:59:46;;;;;;;8.30;3.90;;;10.30;90.50;;;;;;5117623;28;20030;-82
2021/03/19 12:05:34;;;;;;;7.93;3.58;;;10.30;90.50;;;;;;5117075;28;20122;-80
2021/03/19 12:11:35;;;;;;;8.10;3.83;;;9.40;90.70;;;;;;5116422;28;20436;-81
2021/03/19 12:17:24;;;;;;;9.40;4.40;;;9.20;91.20;;;;;;5115961;28;20050;-80
2021/03/19 12:19:52;;;;;;;9.77;4.53;;;9.00;91.20;;;;;;5097433;28;20050;-81
2021/03/19 12:25:41;;;;;;;11.55;4.97;;;9.00;92.00;;;;;;5116091;28;20037;-83
2021/03/19 12:31:30;;;;;;;10.32;4.88;;;9.60;92.50;;;;;;5115653;28;20034;-85
2021/03/19 12:37:18;;;;;;;13.70;5.25;;;9.50;91.20;;;;;;5115413;28;20046;-85
2021/03/19 12:43:08;;;;;;;12.05;5.18;;;9.40;92.20;;;;;;5115559;28;20027;-83
2021/03/19 12:48:57;;;;;;;10.90;4.85;;;10.30;94.20;;;;;;5115398;28;20026;-83
2021/03/19 12:54:46;;;;;;;10.85;5.28;;;11.10;92.10;;;;;;5115256;28;20054;-83
2021/03/19 13:00:36;;;;;;;8.70;3.88;;;9.80;87.30;;;;;;5115183;28;20092;-82
2021/03/19 13:06:26;;;;;;;9.98;4.45;;;7.90;88.30;;;;;;5114869;28;20031;-80
2021/03/19 13:12:15;;;;;;;10.55;4.32;;;6.80;90.10;;;;;;5114562;28;20543;-82
2021/03/19 13:18:04;;;;;;;16.77;9.45;;;6.70;92.10;;;;;;5114854;28;20043;-81
2021/03/19 13:23:53;;;;;;;9.88;4.72;;;6.90;92.40;;;;;;5114862;28;20127;-82
2021/03/19 13:29:41;;;;;;;12.85;5.25;;;7.20;92.50;;;;;;5114552;28;20031;-83
2021/03/19 13:35:32;;;;;;;16.40;8.50;;;7.20;92.10;;;;;;5115092;28;20356;-83
2021/03/19 13:41:20;;;;;;;11.30;5.53;;;7.00;92.20;;;;;;5114534;28;20038;-82
2021/03/19 13:47:10;;;;;;;9.20;3.95;;;6.60;91.70;;;;;;5114611;28;20039;-82
2021/03/19 13:52:58;;;;;;;9.27;3.92;;;6.20;91.90;;;;;;5114394;28;20528;-82
2021/03/19 13:58:47;;;;;;;9.95;4.18;;;6.20;92.40;;;;;;5114330;28;20030;-81
2021/03/19 14:04:35;;;;;;;9.85;4.70;;;6.10;92.20;;;;;;5114302;28;20034;-81
2021/03/19 14:10:26;;;;;;;8.45;3.90;;;6.10;92.60;;;;;;5118329;28;20031;-81
2021/03/19 14:16:15;;;;;;;9.68;4.65;;;7.20;95.10;;;;;;5118167;28;20092;-81
2021/03/19 14:25:59;;;;;;;8.57;3.63;;;7.60;91.80;;;;;;5118312;28;20387;-80
2021/03/19 14:31:47;;;;;;;7.03;3.13;;;7.00;91.50;;;;;;5118224;28;20077;-81
2021/03/19 14:37:35;;;;;;;8.13;3.13;;;6.70;91.90;;;;;;5118129;28;20035;-80
2021/03/19 14:43:25;;;;;;;7.22;3.00;;;6.70;92.30;;;;;;5118252;28;20030;-83
2021/03/19 14:49:14;;;;;;;6.50;2.53;;;6.30;91.80;;;;;;5118086;28;20101;-84
2021/03/19 14:55:05;;;;;;;7.72;2.85;;;6.10;92.00;;;;;;5117682;28;20039;-84
2021/03/19 15:00:55;;;;;;;8.35;3.10;;;6.10;92.70;;;;;;5117521;28;20517;-83
2021/03/19 15:06:44;;;;;;;6.78;2.92;;;6.20;92.40;;;;;;5117457;28;20031;-83
2021/03/19 15:12:32;;;;;;;7.93;3.08;;;6.30;92.50;;;;;;5117192;28;20391;-83
2021/03/19 15:18:24;;;;;;;6.97;3.28;;;6.60;93.00;;;;;;5117330;28;20197;-83
2021/03/19 15:28:06;;;;;;;10.10;3.95;;;6.20;91.90;;;;;;5056627;28;20059;-83
2021/03/19 15:33:54;;;;;;;9.38;4.53;;;6.20;92.20;;;;;;5056007;28;20039;-82
2021/03/19 15:39:43;;;;;;;8.68;3.47;;;6.70;93.30;;;;;;5055922;28;20032;-82
2021/03/19 15:45:32;;;;;;;8.05;3.78;;;7.10;92.70;;;;;;5055841;28;20036;-81
2021/03/19 15:51:20;;;;;;;8.00;3.72;;;7.00;91.90;;;;;;5055907;28;20047;-85
2021/03/19 15:57:09;;;;;;;8.73;3.38;;;6.70;91.70;;;;;;5055963;28;20499;-83
2021/03/19 16:02:58;;;;;;;8.73;4.03;;;6.60;91.70;;;;;;5055541;28;20032;-82
2021/03/19 16:08:47;;;;;;;7.68;3.67;;;6.40;91.60;;;;;;5055650;28;20075;-83
2021/03/19 16:14:35;;;;;;;11.13;5.03;;;6.10;91.20;;;;;;5055408;28;20095;-83
2021/03/19 16:20:28;;;;;;;10.48;4.32;;;6.00;91.80;;;;;;5055565;28;20028;-83
2021/03/19 16:30:17;;;;;;;9.32;4.43;;;5.80;91.00;;;;;;5035503;28;20075;-84
2021/03/19 16:36:06;;;;;;;15.65;7.15;;;5.70;91.60;;;;;;5035128;28;20032;-84
2021/03/19 16:41:55;;;;;;;13.35;5.95;;;6.20;92.10;;;;;;5034906;28;20032;-86
2021/03/19 16:47:44;;;;;;;11.70;4.63;;;6.20;90.80;;;;;;5035012;28;20045;-85
2021/03/19 16:53:32;;;;;;;13.25;7.20;;;5.60;90.60;;;;;;5034629;28;20045;-88
2021/03/19 16:59:22;;;;;;;9.45;3.95;;;5.40;91.20;;;;;;5034580;28;20033;-87
2021/03/19 17:05:11;;;;;;;17.67;10.70;;;5.20;90.60;;;;;;5034731;28;20116;-86
2021/03/19 17:11:01;;;;;;;13.35;5.65;;;4.60;90.40;;;;;;5034533;28;20032;-83
2021/03/19 17:16:50;;;;;;;14.82;6.90;;;4.30;90.80;;;;;;5034279;28;20417;-83
2021/03/19 17:22:39;;;;;;;11.80;5.40;;;4.00;91.00;;;;;;5034461;28;20048;-82
2021/03/19 17:32:21;;;;;;;22.75;9.70;;;3.60;91.10;;;;;;5054265;28;20381;-87
2021/03/19 17:38:11;;;;;;;9.52;3.60;;;3.40;91.30;;;;;;5054960;28;20047;-86
2021/03/19 17:43:59;;;;;;;11.55;4.82;;;3.20;91.40;;;;;;5053452;28;20036;-81
2021/03/19 17:49:48;;;;;;;11.30;5.05;;;3.00;91.30;;;;;;5053512;28;20032;-81
2021/03/19 17:56:01;;;;;;;10.38;4.05;;;2.80;91.30;;;;;;5053465;28;20467;-80
2021/03/19 18:01:50;;;;;;;10.95;4.60;;;2.60;91.40;;;;;;5053585;28;20028;-81
2021/03/19 18:07:38;;;;;;;9.88;4.10;;;2.50;91.50;;;;;;5053627;28;20087;-81
2021/03/19 18:13:31;;;;;;;7.82;3.42;;;2.40;91.50;;;;;;5053396;28;20554;-81
2021/03/19 18:19:19;;;;;;;10.02;3.88;;;2.40;91.70;;;;;;5053978;28;20488;-83
2021/03/19 18:25:11;;;;;;;8.55;3.50;;;2.30;91.60;;;;;;5053702;28;20039;-83
2021/03/19 18:35:06;;;;;;;14.35;5.38;;;2.10;91.60;;;;;;5054252;28;20055;-85
2021/03/19 18:40:54;;;;;;;12.32;5.18;;;1.90;91.60;;;;;;5055702;28;20072;-84
2021/03/19 18:46:44;;;;;;;28.10;12.75;;;1.80;91.70;;;;;;5055505;28;20040;-85
2021/03/19 18:52:32;;;;;;;12.35;4.85;;;1.80;91.70;;;;;;5054321;28;20056;-88
2021/03/19 18:58:22;;;;;;;11.65;3.95;;;1.70;91.80;;;;;;5058280;28;20032;-86
2021/03/19 19:04:14;;;;;;;11.35;4.20;;;1.70;91.90;;;;;;5057940;28;20036;-86
2021/03/19 19:10:08;;;;;;;10.52;4.72;;;1.80;92.10;;;;;;5057059;28;20503;-82
2021/03/19 19:15:57;;;;;;;11.88;4.35;;;1.80;92.20;;;;;;5056866;28;20121;-81
2021/03/19 19:21:46;;;;;;;19.33;9.30;;;1.90;92.30;;;;;;5056876;28;20095;-83
2021/03/19 19:27:35;;;;;;;27.73;14.10;;;2.00;92.40;;;;;;5058176;28;20028;-86
2021/03/19 19:37:25;;;;;;;15.27;8.20;;;2.20;92.50;;;;;;5056462;28;20468;-86
2021/03/19 19:43:14;;;;;;;11.85;4.93;;;2.30;92.50;;;;;;5056236;28;20071;-86
2021/03/19 19:49:06;;;;;;;10.98;4.50;;;2.30;92.30;;;;;;5056241;28;20381;-85
2021/03/19 19:54:55;;;;;;;11.35;4.72;;;2.30;92.30;;;;;;5055779;28;20055;-86
2021/03/19 20:00:44;;;;;;;8.63;3.75;;;2.30;92.30;;;;;;5055511;28;20095;-86
2021/03/19 20:06:33;;;;;;;9.23;4.10;;;2.20;92.10;;;;;;5055443;28;20052;-86
2021/03/19 20:12:22;;;;;;;12.63;3.60;;;2.00;92.00;;;;;;5055508;28;20032;-86
2021/03/19 20:18:27;;;;;;;8.50;3.90;;;1.90;92.00;;;;;;5055328;28;20380;-84
2021/03/19 20:24:18;;;;;;;15.68;8.02;;;1.80;92.00;;;;;;5055220;28;20039;-85
2021/03/19 20:30:16;;;;;;;17.98;8.48;;;1.70;92.00;;;;;;5054999;28;20104;-85
2021/03/19 20:40:14;;;;;;;13.43;6.55;;;1.50;91.90;;;;;;5075397;28;20448;-85
2021/03/19 20:46:03;;;;;;;9.48;4.15;;;1.40;91.80;;;;;;5077129;28;20161;-87
2021/03/19 20:51:53;;;;;;;12.57;4.35;;;1.20;91.90;;;;;;5075049;28;20078;-86
2021/03/19 20:57:42;;;;;;;10.63;4.20;;;1.20;92.00;;;;;;5075407;28;20036;-86
2021/03/19 21:03:34;;;;;;;10.55;4.47;;;1.10;92.00;;;;;;5075265;28;20050;-83
2021/03/19 21:09:38;;;;;;;10.50;4.43;;;1.00;91.90;;;;;;5077093;28;20047;-94
2021/03/19 21:15:29;;;;;;;9.50;4.03;;;0.90;92.00;;;;;;5074442;28;20048;-84
2021/03/19 21:21:17;;;;;;;9.50;3.50;;;0.80;91.90;;;;;;5074213;28;20104;-84
2021/03/19 21:27:11;;;;;;;11.23;3.90;;;0.70;91.90;;;;;;5076724;28;20153;-85
2021/03/19 21:32:59;;;;;;;8.93;3.80;;;0.60;91.90;;;;;;5074767;28;20066;-83
2021/03/19 21:42:48;;;;;;;10.38;4.15;;;0.50;91.90;;;;;;5054477;28;20105;-83
2021/03/19 21:48:39;;;;;;;9.80;4.35;;;0.40;91.90;;;;;;5054220;28;20040;-83
2021/03/19 21:54:27;;;;;;;10.73;4.82;;;0.40;92.00;;;;;;5053861;28;20105;-81
2021/03/19 22:00:20;;;;;;;10.27;4.40;;;0.40;92.10;;;;;;5053727;28;20087;-83
2021/03/19 22:06:09;;;;;;;9.88;4.70;;;0.50;92.30;;;;;;5053759;28;20113;-83
2021/03/19 22:11:57;;;;;;;10.80;4.43;;;0.50;92.40;;;;;;5073786;28;20150;-84
2021/03/19 22:17:46;;;;;;;9.73;4.35;;;0.70;92.40;;;;;;5073863;28;20035;-83
2021/03/19 22:23:34;;;;;;;10.75;4.05;;;0.80;92.60;;;;;;5073716;28;20040;-84
2021/03/19 22:29:26;;;;;;;10.90;4.18;;;0.80;92.50;;;;;;5074543;28;20035;-85
2021/03/19 22:35:14;;;;;;;9.15;4.00;;;0.90;92.50;;;;;;5077927;28;20055;-86
2021/03/19 22:44:58;;;;;;;10.00;3.78;;;1.00;92.60;;;;;;5057456;28;20071;-80
2021/03/19 22:50:46;;;;;;;9.32;3.92;;;1.10;92.60;;;;;;5077382;28;20597;-82
2021/03/19 22:56:35;;;;;;;11.15;3.97;;;1.10;92.60;;;;;;5077158;28;20086;-83
2021/03/19 23:02:23;;;;;;;7.72;3.28;;;1.10;92.50;;;;;;5076891;28;20169;-80
2021/03/19 23:08:14;;;;;;;8.35;3.20;;;1.20;92.60;;;;;;5076672;28;20051;-80
2021/03/19 23:14:05;;;;;;;7.45;3.25;;;1.30;92.70;;;;;;5076632;28;20508;-81
2021/03/19 23:19:54;;;;;;;8.10;2.90;;;1.30;92.70;;;;;;5076804;28;20066;-81
2021/03/19 23:25:43;;;;;;;8.75;3.00;;;1.40;92.70;;;;;;5076686;28;20384;-80
2021/03/19 23:31:33;;;;;;;6.85;2.97;;;1.40;92.60;;;;;;5076288;28;20480;-81
2021/03/19 23:37:21;;;;;;;8.45;3.25;;;1.40;92.60;;;;;;5076337;28;20040;-80
2021/03/19 23:47:03;;;;;;;6.88;3.00;;;1.40;92.40;;;;;;5056033;28;20068;-81
2021/03/19 23:52:52;;;;;;;6.70;2.85;;;1.20;92.20;;;;;;5055948;28;20056;-81
2021/03/19 23:58:44;;;;;;;6.55;3.08;;;1.10;92.30;;;;;;5056175;28;20084;-81
